ETH779 RKSI-EDDF
Flight info
| Callsign | ETH779 |
|---|---|
| Flight time | N/A |
| Altitude | 26000 |
| Route | BINIL3H BINIL Y697 OLBIM/N0486F280 Y697 AGAVO/K0895S0840 A591 IKEKA W4 HCH W200 DOVIV W55 PAMRU W34 VYK B215 LEBOM W104 VEXEB W47 IDSOT W48 DKO W66 NUKTI B215 HAM/K0920S0920 B215 FKG A368 SARIN/K0911F300 N161 RITET/K0906F320 N161 GASBI/N0490F320 N161 LEYLA N644 ADEKI DCT BADIR DCT LAGAS DCT FOQUS DCT SARPI UM10 GOKPA UL746 ODERO DCT OPT/N0479F340 DCT TEGRI DCT ARSIN DCT SUBEN DCT AKINI T161 DEBHI SPESA5B |
| Aircraft | B77L/H-SDE1E2E3FGHIJ2J3J4J5M1RWXY/LB1D1 |
Departure
| Time | N/A |
|---|---|
| Airport | Incheon International Airport (RKSI) |
Arrival
| Time | 2026-05-05 21:54 |
|---|---|
| Airport | Frankfurt Main Airport (EDDF) |
| Time | Latitude | Longitude | Altitude | Speed | Heading |
|---|---|---|---|---|---|
| 2026-05-05 21:23 | 48.09028 | 14.75886 | 35842 ft | 469 kts | 289° |
| 2026-05-05 21:23 | 48.11302 | 14.66797 | 35816 ft | 470 kts | 288° |
| 2026-05-05 21:24 | 48.15871 | 14.48444 | 35848 ft | 468 kts | 288° |
| 2026-05-05 21:24 | 48.20358 | 14.30280 | 35825 ft | 468 kts | 288° |
| 2026-05-05 21:25 | 48.24986 | 14.11383 | 35834 ft | 466 kts | 288° |
| 2026-05-05 21:25 | 48.32916 | 13.78628 | 35830 ft | 464 kts | 287° |
| 2026-05-05 21:26 | 48.41623 | 13.42086 | 35825 ft | 464 kts | 287° |
| 2026-05-05 21:26 | 48.50965 | 13.05818 | 35854 ft | 465 kts | 289° |
| 2026-05-05 21:27 | 48.60472 | 12.69331 | 35880 ft | 467 kts | 288° |
| 2026-05-05 21:27 | 48.69893 | 12.32577 | 35968 ft | 468 kts | 288° |
| 2026-05-05 21:28 | 48.74542 | 12.14009 | 35836 ft | 471 kts | 284° |
| 2026-05-05 21:28 | 48.75764 | 12.06212 | 35897 ft | 465 kts | 276° |
| 2026-05-05 21:28 | 48.79362 | 11.71431 | 35847 ft | 468 kts | 275° |
| 2026-05-05 21:29 | 48.83004 | 11.36529 | 35908 ft | 469 kts | 275° |
| 2026-05-05 21:29 | 48.84449 | 11.25416 | 35835 ft | 476 kts | 287° |
| 2026-05-05 21:30 | 48.86632 | 11.19294 | 35854 ft | 485 kts | 302° |
| 2026-05-05 21:30 | 48.89478 | 11.14601 | 35881 ft | 492 kts | 315° |
| 2026-05-05 21:30 | 48.96041 | 11.05910 | 35863 ft | 492 kts | 314° |
| 2026-05-05 21:31 | 48.98566 | 11.02377 | 35719 ft | 492 kts | 313° |
| 2026-05-05 21:31 | 49.01048 | 10.98857 | 35470 ft | 483 kts | 313° |
| 2026-05-05 21:31 | 49.03500 | 10.95373 | 34849 ft | 482 kts | 313° |
| 2026-05-05 21:31 | 49.05932 | 10.91923 | 33900 ft | 488 kts | 313° |
| 2026-05-05 21:32 | 49.08437 | 10.88375 | 32810 ft | 496 kts | 314° |
| 2026-05-05 21:32 | 49.10991 | 10.84769 | 31694 ft | 503 kts | 314° |
| 2026-05-05 21:32 | 49.13573 | 10.81129 | 30603 ft | 508 kts | 314° |
| 2026-05-05 21:32 | 49.16181 | 10.77459 | 29646 ft | 510 kts | 315° |
| 2026-05-05 21:33 | 49.18747 | 10.73769 | 28923 ft | 504 kts | 312° |
| 2026-05-05 21:33 | 49.21056 | 10.69814 | 28311 ft | 494 kts | 305° |
| 2026-05-05 21:33 | 49.23142 | 10.65685 | 27700 ft | 488 kts | 304° |
| 2026-05-05 21:33 | 49.25165 | 10.61564 | 27091 ft | 482 kts | 304° |
| 2026-05-05 21:34 | 49.27171 | 10.57467 | 26492 ft | 478 kts | 304° |
| 2026-05-05 21:34 | 49.29156 | 10.53437 | 25848 ft | 467 kts | 304° |
| 2026-05-05 21:34 | 49.31105 | 10.49515 | 24879 ft | 458 kts | 304° |
| 2026-05-05 21:34 | 49.33031 | 10.45657 | 23772 ft | 454 kts | 304° |
| 2026-05-05 21:35 | 49.34941 | 10.41838 | 22688 ft | 448 kts | 304° |
| 2026-05-05 21:35 | 49.36823 | 10.38073 | 21681 ft | 441 kts | 305° |
| 2026-05-05 21:35 | 49.38668 | 10.34382 | 20778 ft | 431 kts | 305° |
| 2026-05-05 21:35 | 49.40472 | 10.30768 | 19890 ft | 422 kts | 305° |
| 2026-05-05 21:36 | 49.42236 | 10.27219 | 18959 ft | 413 kts | 305° |
| 2026-05-05 21:36 | 49.43958 | 10.23761 | 18284 ft | 399 kts | 305° |
| 2026-05-05 21:36 | 49.45609 | 10.20448 | 17791 ft | 382 kts | 305° |
| 2026-05-05 21:36 | 49.47198 | 10.17255 | 17283 ft | 368 kts | 305° |
| 2026-05-05 21:37 | 49.48726 | 10.14154 | 16828 ft | 363 kts | 305° |
| 2026-05-05 21:37 | 49.50266 | 10.11021 | 16382 ft | 372 kts | 305° |
| 2026-05-05 21:37 | 49.51859 | 10.07780 | 15885 ft | 386 kts | 305° |
| 2026-05-05 21:37 | 49.53487 | 10.04461 | 15385 ft | 389 kts | 304° |
| 2026-05-05 21:38 | 49.55033 | 10.01058 | 15106 ft | 385 kts | 302° |
| 2026-05-05 21:38 | 49.56501 | 9.97629 | 14867 ft | 381 kts | 301° |
| 2026-05-05 21:38 | 49.57927 | 9.94223 | 14605 ft | 377 kts | 301° |
| 2026-05-05 21:38 | 49.59349 | 9.90831 | 14284 ft | 376 kts | 301° |
| 2026-05-05 21:39 | 49.60774 | 9.87451 | 13977 ft | 375 kts | 301° |
| 2026-05-05 21:39 | 49.62194 | 9.84095 | 13702 ft | 373 kts | 301° |
| 2026-05-05 21:39 | 49.63608 | 9.80759 | 13437 ft | 370 kts | 301° |
| 2026-05-05 21:39 | 49.65016 | 9.77440 | 13170 ft | 368 kts | 301° |
| 2026-05-05 21:40 | 49.66396 | 9.74189 | 12888 ft | 366 kts | 301° |
| 2026-05-05 21:40 | 49.67788 | 9.70913 | 12461 ft | 364 kts | 301° |
| 2026-05-05 21:40 | 49.69187 | 9.67613 | 11978 ft | 360 kts | 301° |
| 2026-05-05 21:40 | 49.70528 | 9.64444 | 11560 ft | 354 kts | 301° |
| 2026-05-05 21:41 | 49.71857 | 9.61310 | 11221 ft | 345 kts | 301° |
| 2026-05-05 21:41 | 49.73159 | 9.58230 | 10820 ft | 339 kts | 301° |
| 2026-05-05 21:41 | 49.74418 | 9.55245 | 10660 ft | 321 kts | 301° |
| 2026-05-05 21:41 | 49.75594 | 9.52462 | 10536 ft | 297 kts | 301° |
| 2026-05-05 21:42 | 49.76678 | 9.49890 | 10385 ft | 275 kts | 301° |
| 2026-05-05 21:42 | 49.77684 | 9.47510 | 10300 ft | 256 kts | 301° |
| 2026-05-05 21:42 | 49.78636 | 9.45242 | 10207 ft | 248 kts | 300° |
| 2026-05-05 21:42 | 49.79594 | 9.42948 | 10131 ft | 260 kts | 300° |
| 2026-05-05 21:43 | 49.80593 | 9.40553 | 10035 ft | 269 kts | 300° |
| 2026-05-05 21:43 | 49.81607 | 9.38135 | 9906 ft | 265 kts | 301° |
| 2026-05-05 21:43 | 49.82600 | 9.35768 | 9698 ft | 261 kts | 300° |
| 2026-05-05 21:43 | 49.83577 | 9.33431 | 9406 ft | 255 kts | 301° |
| 2026-05-05 21:44 | 49.84516 | 9.31147 | 9139 ft | 250 kts | 300° |
| 2026-05-05 21:44 | 49.85428 | 9.28859 | 8865 ft | 253 kts | 300° |
| 2026-05-05 21:44 | 49.86410 | 9.26535 | 8571 ft | 261 kts | 301° |
| 2026-05-05 21:44 | 49.87408 | 9.24184 | 8289 ft | 261 kts | 301° |
| 2026-05-05 21:45 | 49.88398 | 9.21846 | 7989 ft | 257 kts | 301° |
| 2026-05-05 21:45 | 49.89358 | 9.19562 | 7686 ft | 250 kts | 301° |
| 2026-05-05 21:45 | 49.90290 | 9.17323 | 7402 ft | 244 kts | 301° |
| 2026-05-05 21:45 | 49.91213 | 9.15101 | 7149 ft | 248 kts | 301° |
| 2026-05-05 21:46 | 49.92163 | 9.12813 | 6882 ft | 255 kts | 301° |
| 2026-05-05 21:46 | 49.93132 | 9.10484 | 6590 ft | 258 kts | 301° |
| 2026-05-05 21:46 | 49.94095 | 9.08161 | 6288 ft | 253 kts | 301° |
| 2026-05-05 21:46 | 49.95016 | 9.05932 | 6129 ft | 242 kts | 301° |
| 2026-05-05 21:47 | 49.95920 | 9.03759 | 5999 ft | 232 kts | 300° |
| 2026-05-05 21:47 | 49.96846 | 9.01749 | 5817 ft | 234 kts | 314° |
| 2026-05-05 21:47 | 49.98124 | 9.00158 | 5579 ft | 238 kts | 321° |
| 2026-05-05 21:47 | 49.99491 | 8.98663 | 5292 ft | 241 kts | 322° |
| 2026-05-05 21:48 | 50.00843 | 8.97171 | 4998 ft | 236 kts | 323° |
| 2026-05-05 21:48 | 50.02053 | 8.95583 | 4868 ft | 219 kts | 305° |
| 2026-05-05 21:48 | 50.02926 | 8.93598 | 4689 ft | 232 kts | 303° |
| 2026-05-05 21:48 | 50.03569 | 8.92194 | 4500 ft | 238 kts | 304° |
| 2026-05-05 21:49 | 50.04866 | 8.89450 | 4093 ft | 237 kts | 305° |
| 2026-05-05 21:49 | 50.05520 | 8.88073 | 3889 ft | 232 kts | 303° |
| 2026-05-05 21:49 | 50.06122 | 8.85867 | 3567 ft | 221 kts | 274° |
| 2026-05-05 21:49 | 50.06201 | 8.83558 | 3504 ft | 212 kts | 273° |
| 2026-05-05 21:50 | 50.06325 | 8.81300 | 3233 ft | 206 kts | 274° |
| 2026-05-05 21:50 | 50.06446 | 8.79137 | 3042 ft | 195 kts | 274° |
| 2026-05-05 21:50 | 50.06557 | 8.77070 | 2759 ft | 187 kts | 274° |
| 2026-05-05 21:50 | 50.06655 | 8.75139 | 2516 ft | 174 kts | 273° |
| 2026-05-05 21:51 | 50.06751 | 8.73258 | 2328 ft | 175 kts | 273° |
| 2026-05-05 21:51 | 50.06850 | 8.71363 | 2105 ft | 173 kts | 272° |
| 2026-05-05 21:51 | 50.06661 | 8.69624 | 1998 ft | 158 kts | 244° |
| 2026-05-05 21:51 | 50.06216 | 8.68025 | 1900 ft | 165 kts | 250° |
| 2026-05-05 21:52 | 50.05476 | 8.64773 | 1233 ft | 157 kts | 245° |
| 2026-05-05 21:52 | 50.05095 | 8.63282 | 956 ft | 150 kts | 250° |
| 2026-05-05 21:53 | 50.04851 | 8.62136 | 766 ft | 139 kts | 247° |
| 2026-05-05 21:53 | 50.04515 | 8.60821 | 598 ft | 137 kts | 249° |
| 2026-05-05 21:53 | 50.04184 | 8.59398 | 469 ft | 142 kts | 249° |
| 2026-05-05 21:53 | 50.03839 | 8.57960 | 383 ft | 136 kts | 249° |
| 2026-05-05 21:54 | 50.03538 | 8.56711 | 354 ft | 109 kts | 250° |
| 2026-05-05 21:54 | 50.03319 | 8.55785 | 355 ft | 70 kts | 249° |
| 2026-05-05 21:54 | 50.03191 | 8.55239 | 356 ft | 39 kts | 255° |
| 2026-05-05 21:54 | 50.03181 | 8.54938 | 354 ft | 15 kts | 276° |
| 2026-05-05 21:55 | 50.03184 | 8.54889 | 352 ft | 4 kts | 275° |
| 2026-05-05 21:55 | 50.03188 | 8.54842 | 350 ft | 5 kts | 278° |
| 2026-05-05 21:55 | 50.03194 | 8.54778 | 350 ft | 5 kts | 278° |
| 2026-05-05 21:55 | 50.03199 | 8.54725 | 346 ft | 5 kts | 279° |
| 2026-05-05 21:56 | 50.03206 | 8.54661 | 353 ft | 7 kts | 280° |
| 2026-05-05 21:56 | 50.03238 | 8.54607 | 351 ft | 7 kts | 341° |
| 2026-05-05 21:56 | 50.03284 | 8.54633 | 352 ft | 7 kts | 49° |
| 2026-05-05 21:56 | 50.03308 | 8.54704 | 353 ft | 7 kts | 64° |
| 2026-05-05 21:57 | 50.03326 | 8.54778 | 353 ft | 7 kts | 71° |
| 2026-05-05 21:57 | 50.03346 | 8.54863 | 349 ft | 10 kts | 70° |
| 2026-05-05 21:57 | 50.03383 | 8.55017 | 350 ft | 17 kts | 69° |
| 2026-05-05 21:57 | 50.03425 | 8.55190 | 358 ft | 17 kts | 69° |
| 2026-05-05 21:58 | 50.03467 | 8.55364 | 358 ft | 18 kts | 70° |
| 2026-05-05 21:58 | 50.03513 | 8.55560 | 357 ft | 20 kts | 70° |
| 2026-05-05 21:58 | 50.03561 | 8.55765 | 355 ft | 20 kts | 71° |
| 2026-05-05 21:58 | 50.03610 | 8.55970 | 355 ft | 20 kts | 69° |
| 2026-05-05 21:59 | 50.03661 | 8.56173 | 358 ft | 20 kts | 69° |
| 2026-05-05 21:59 | 50.03711 | 8.56379 | 363 ft | 21 kts | 70° |
| 2026-05-05 21:59 | 50.03771 | 8.56633 | 359 ft | 28 kts | 70° |
| 2026-05-05 21:59 | 50.03845 | 8.56942 | 363 ft | 31 kts | 69° |
| 2026-05-05 22:00 | 50.03918 | 8.57253 | 366 ft | 30 kts | 69° |
| 2026-05-05 22:00 | 50.03991 | 8.57558 | 371 ft | 30 kts | 69° |
| 2026-05-05 22:00 | 50.04055 | 8.57819 | 371 ft | 21 kts | 68° |
| 2026-05-05 22:00 | 50.04109 | 8.58034 | 374 ft | 21 kts | 69° |
| 2026-05-05 22:01 | 50.04212 | 8.58187 | 372 ft | 21 kts | 23° |
| 2026-05-05 22:01 | 50.04349 | 8.58163 | 372 ft | 20 kts | 339° |
| 2026-05-05 22:01 | 50.04442 | 8.58113 | 371 ft | 12 kts | 341° |
| 2026-05-05 22:01 | 50.04487 | 8.58089 | 370 ft | 2 kts | 340° |